sensor_id;sensor_type;location;lat;lon;timestamp;P1;durP1;ratioP1;P2;durP2;ratioP2
36715;SDS011;22699;51.034;3.730;2023-07-22T00:01:39;11.85;;;9.27;;
36715;SDS011;22699;51.034;3.730;2023-07-22T00:04:05;13.93;;;10.18;;
36715;SDS011;22699;51.034;3.730;2023-07-22T00:06:30;14.95;;;9.43;;
36715;SDS011;22699;51.034;3.730;2023-07-22T00:08:56;19.33;;;11.50;;
36715;SDS011;22699;51.034;3.730;2023-07-22T00:11:22;16.25;;;10.73;;
36715;SDS011;22699;51.034;3.730;2023-07-22T00:13:54;14.23;;;10.25;;
36715;SDS011;22699;51.034;3.730;2023-07-22T00:16:22;16.13;;;10.38;;
36715;SDS011;22699;51.034;3.730;2023-07-22T00:18:50;15.13;;;10.52;;
36715;SDS011;22699;51.034;3.730;2023-07-22T00:21:18;16.58;;;10.32;;
36715;SDS011;22699;51.034;3.730;2023-07-22T00:23:43;15.90;;;9.45;;
36715;SDS011;22699;51.034;3.730;2023-07-22T00:26:11;17.33;;;10.55;;
36715;SDS011;22699;51.034;3.730;2023-07-22T00:28:36;16.88;;;10.32;;
36715;SDS011;22699;51.034;3.730;2023-07-22T00:31:02;18.08;;;10.13;;
36715;SDS011;22699;51.034;3.730;2023-07-22T00:33:28;14.02;;;9.32;;
36715;SDS011;22699;51.034;3.730;2023-07-22T00:35:54;14.52;;;10.10;;
36715;SDS011;22699;51.034;3.730;2023-07-22T00:38:20;14.77;;;9.98;;
36715;SDS011;22699;51.034;3.730;2023-07-22T00:40:46;17.90;;;11.18;;
36715;SDS011;22699;51.034;3.730;2023-07-22T00:43:12;19.13;;;10.98;;
36715;SDS011;22699;51.034;3.730;2023-07-22T00:45:38;15.20;;;10.60;;
36715;SDS011;22699;51.034;3.730;2023-07-22T00:48:05;16.55;;;10.68;;
36715;SDS011;22699;51.034;3.730;2023-07-22T00:50:31;18.15;;;10.82;;
36715;SDS011;22699;51.034;3.730;2023-07-22T00:52:58;13.70;;;10.43;;
36715;SDS011;22699;51.034;3.730;2023-07-22T00:55:24;15.50;;;10.48;;
36715;SDS011;22699;51.034;3.730;2023-07-22T00:57:50;17.35;;;10.48;;
36715;SDS011;22699;51.034;3.730;2023-07-22T01:00:16;16.50;;;10.85;;
36715;SDS011;22699;51.034;3.730;2023-07-22T01:02:42;18.65;;;10.98;;
36715;SDS011;22699;51.034;3.730;2023-07-22T01:05:09;17.10;;;10.93;;
36715;SDS011;22699;51.034;3.730;2023-07-22T01:07:37;15.32;;;10.50;;
36715;SDS011;22699;51.034;3.730;2023-07-22T01:10:06;15.55;;;10.80;;
36715;SDS011;22699;51.034;3.730;2023-07-22T01:12:33;18.80;;;10.77;;
36715;SDS011;22699;51.034;3.730;2023-07-22T01:14:59;14.70;;;11.40;;
36715;SDS011;22699;51.034;3.730;2023-07-22T01:17:25;21.88;;;11.63;;
36715;SDS011;22699;51.034;3.730;2023-07-22T01:19:51;16.92;;;11.65;;
36715;SDS011;22699;51.034;3.730;2023-07-22T01:22:17;19.17;;;11.18;;
36715;SDS011;22699;51.034;3.730;2023-07-22T01:24:44;15.30;;;10.32;;
36715;SDS011;22699;51.034;3.730;2023-07-22T01:27:16;18.50;;;12.55;;
36715;SDS011;22699;51.034;3.730;2023-07-22T01:29:43;19.05;;;11.18;;
36715;SDS011;22699;51.034;3.730;2023-07-22T01:32:11;16.02;;;10.90;;
36715;SDS011;22699;51.034;3.730;2023-07-22T01:34:37;21.70;;;11.90;;
36715;SDS011;22699;51.034;3.730;2023-07-22T01:37:04;16.10;;;11.65;;
36715;SDS011;22699;51.034;3.730;2023-07-22T01:39:31;17.55;;;10.98;;
36715;SDS011;22699;51.034;3.730;2023-07-22T01:44:27;21.67;;;11.77;;
36715;SDS011;22699;51.034;3.730;2023-07-22T01:46:54;17.58;;;11.57;;
36715;SDS011;22699;51.034;3.730;2023-07-22T01:49:25;18.23;;;11.13;;
36715;SDS011;22699;51.034;3.730;2023-07-22T01:51:53;14.45;;;11.30;;
36715;SDS011;22699;51.034;3.730;2023-07-22T01:54:19;24.02;;;11.45;;
36715;SDS011;22699;51.034;3.730;2023-07-22T01:56:45;19.05;;;11.27;;
36715;SDS011;22699;51.034;3.730;2023-07-22T01:59:11;16.80;;;11.80;;
36715;SDS011;22699;51.034;3.730;2023-07-22T02:01:37;17.90;;;11.15;;
36715;SDS011;22699;51.034;3.730;2023-07-22T02:04:03;16.83;;;11.55;;
36715;SDS011;22699;51.034;3.730;2023-07-22T02:06:30;20.50;;;11.93;;
36715;SDS011;22699;51.034;3.730;2023-07-22T02:08:56;21.48;;;13.63;;
36715;SDS011;22699;51.034;3.730;2023-07-22T02:11:23;21.80;;;11.68;;
36715;SDS011;22699;51.034;3.730;2023-07-22T02:13:49;18.40;;;12.48;;
36715;SDS011;22699;51.034;3.730;2023-07-22T02:18:47;20.52;;;13.40;;
36715;SDS011;22699;51.034;3.730;2023-07-22T02:21:12;18.52;;;12.32;;
36715;SDS011;22699;51.034;3.730;2023-07-22T02:23:38;17.92;;;12.50;;
36715;SDS011;22699;51.034;3.730;2023-07-22T02:26:04;18.05;;;12.02;;
36715;SDS011;22699;51.034;3.730;2023-07-22T02:28:30;19.40;;;12.30;;
36715;SDS011;22699;51.034;3.730;2023-07-22T02:31:00;17.05;;;11.90;;
36715;SDS011;22699;51.034;3.730;2023-07-22T02:33:28;20.02;;;12.25;;
36715;SDS011;22699;51.034;3.730;2023-07-22T02:35:54;22.55;;;13.02;;
36715;SDS011;22699;51.034;3.730;2023-07-22T02:38:19;18.55;;;12.48;;
36715;SDS011;22699;51.034;3.730;2023-07-22T02:40:45;21.10;;;11.65;;
36715;SDS011;22699;51.034;3.730;2023-07-22T02:43:11;25.55;;;12.80;;
36715;SDS011;22699;51.034;3.730;2023-07-22T02:45:36;17.65;;;13.20;;
36715;SDS011;22699;51.034;3.730;2023-07-22T02:48:03;24.23;;;13.65;;
36715;SDS011;22699;51.034;3.730;2023-07-22T02:50:29;18.23;;;12.82;;
36715;SDS011;22699;51.034;3.730;2023-07-22T02:52:55;21.27;;;12.93;;
36715;SDS011;22699;51.034;3.730;2023-07-22T02:55:21;17.48;;;12.68;;
36715;SDS011;22699;51.034;3.730;2023-07-22T02:57:48;20.15;;;12.80;;
36715;SDS011;22699;51.034;3.730;2023-07-22T03:00:15;17.60;;;12.07;;
36715;SDS011;22699;51.034;3.730;2023-07-22T03:02:54;18.35;;;11.52;;
36715;SDS011;22699;51.034;3.730;2023-07-22T03:05:25;16.52;;;12.20;;
36715;SDS011;22699;51.034;3.730;2023-07-22T03:07:55;16.48;;;11.88;;
36715;SDS011;22699;51.034;3.730;2023-07-22T03:10:21;16.10;;;11.73;;
36715;SDS011;22699;51.034;3.730;2023-07-22T03:12:47;16.92;;;11.95;;
36715;SDS011;22699;51.034;3.730;2023-07-22T03:15:12;20.08;;;12.23;;
36715;SDS011;22699;51.034;3.730;2023-07-22T03:17:38;18.88;;;11.88;;
36715;SDS011;22699;51.034;3.730;2023-07-22T03:20:07;19.67;;;13.23;;
36715;SDS011;22699;51.034;3.730;2023-07-22T03:22:43;24.13;;;12.52;;
36715;SDS011;22699;51.034;3.730;2023-07-22T03:25:09;21.25;;;13.38;;
36715;SDS011;22699;51.034;3.730;2023-07-22T03:27:41;19.77;;;12.70;;
36715;SDS011;22699;51.034;3.730;2023-07-22T03:30:17;18.35;;;12.65;;
36715;SDS011;22699;51.034;3.730;2023-07-22T03:32:45;20.55;;;12.57;;
36715;SDS011;22699;51.034;3.730;2023-07-22T03:35:12;16.35;;;11.90;;
36715;SDS011;22699;51.034;3.730;2023-07-22T03:37:39;19.05;;;11.85;;
36715;SDS011;22699;51.034;3.730;2023-07-22T03:40:05;19.98;;;12.63;;
36715;SDS011;22699;51.034;3.730;2023-07-22T03:42:52;22.65;;;11.80;;
36715;SDS011;22699;51.034;3.730;2023-07-22T03:45:19;15.10;;;10.95;;
36715;SDS011;22699;51.034;3.730;2023-07-22T03:47:50;17.77;;;12.23;;
36715;SDS011;22699;51.034;3.730;2023-07-22T03:50:21;20.33;;;11.20;;
36715;SDS011;22699;51.034;3.730;2023-07-22T03:52:46;21.73;;;12.02;;
36715;SDS011;22699;51.034;3.730;2023-07-22T03:55:12;20.27;;;12.80;;
36715;SDS011;22699;51.034;3.730;2023-07-22T03:57:38;19.02;;;11.27;;
36715;SDS011;22699;51.034;3.730;2023-07-22T04:00:06;18.33;;;11.73;;
36715;SDS011;22699;51.034;3.730;2023-07-22T04:02:35;19.67;;;11.95;;
36715;SDS011;22699;51.034;3.730;2023-07-22T04:05:00;20.58;;;13.52;;
36715;SDS011;22699;51.034;3.730;2023-07-22T04:07:26;20.67;;;12.68;;
36715;SDS011;22699;51.034;3.730;2023-07-22T04:09:51;18.98;;;12.15;;
36715;SDS011;22699;51.034;3.730;2023-07-22T04:12:17;24.13;;;12.05;;
36715;SDS011;22699;51.034;3.730;2023-07-22T04:14:43;16.35;;;12.18;;
36715;SDS011;22699;51.034;3.730;2023-07-22T04:17:08;17.63;;;11.88;;
36715;SDS011;22699;51.034;3.730;2023-07-22T04:19:35;19.13;;;11.63;;
36715;SDS011;22699;51.034;3.730;2023-07-22T04:22:01;17.75;;;11.38;;
36715;SDS011;22699;51.034;3.730;2023-07-22T04:24:32;17.42;;;11.63;;
36715;SDS011;22699;51.034;3.730;2023-07-22T04:26:58;17.77;;;11.85;;
36715;SDS011;22699;51.034;3.730;2023-07-22T04:29:24;17.98;;;11.90;;
36715;SDS011;22699;51.034;3.730;2023-07-22T04:31:50;16.23;;;11.43;;
36715;SDS011;22699;51.034;3.730;2023-07-22T04:34:16;18.50;;;11.60;;
36715;SDS011;22699;51.034;3.730;2023-07-22T04:36:41;16.83;;;11.73;;
36715;SDS011;22699;51.034;3.730;2023-07-22T04:39:08;20.98;;;10.73;;
36715;SDS011;22699;51.034;3.730;2023-07-22T04:41:34;18.48;;;11.15;;
36715;SDS011;22699;51.034;3.730;2023-07-22T04:44:01;21.70;;;11.02;;
36715;SDS011;22699;51.034;3.730;2023-07-22T04:46:26;15.90;;;10.20;;
36715;SDS011;22699;51.034;3.730;2023-07-22T04:48:55;17.60;;;11.30;;
36715;SDS011;22699;51.034;3.730;2023-07-22T04:51:24;16.35;;;10.23;;
36715;SDS011;22699;51.034;3.730;2023-07-22T04:53:50;20.70;;;10.52;;
36715;SDS011;22699;51.034;3.730;2023-07-22T04:56:17;18.27;;;11.68;;
36715;SDS011;22699;51.034;3.730;2023-07-22T04:58:42;19.30;;;11.10;;
36715;SDS011;22699;51.034;3.730;2023-07-22T05:01:08;19.38;;;10.77;;
36715;SDS011;22699;51.034;3.730;2023-07-22T05:03:34;19.75;;;11.88;;
36715;SDS011;22699;51.034;3.730;2023-07-22T05:06:00;18.10;;;10.93;;
36715;SDS011;22699;51.034;3.730;2023-07-22T05:08:26;19.40;;;10.77;;
36715;SDS011;22699;51.034;3.730;2023-07-22T05:10:52;21.13;;;11.48;;
36715;SDS011;22699;51.034;3.730;2023-07-22T05:13:18;16.92;;;10.95;;
36715;SDS011;22699;51.034;3.730;2023-07-22T05:15:44;18.58;;;10.27;;
36715;SDS011;22699;51.034;3.730;2023-07-22T05:18:10;26.33;;;11.07;;
36715;SDS011;22699;51.034;3.730;2023-07-22T05:20:37;18.75;;;10.35;;
36715;SDS011;22699;51.034;3.730;2023-07-22T05:23:04;18.85;;;10.30;;
36715;SDS011;22699;51.034;3.730;2023-07-22T05:25:30;17.13;;;11.15;;
36715;SDS011;22699;51.034;3.730;2023-07-22T05:27:56;16.67;;;10.18;;
36715;SDS011;22699;51.034;3.730;2023-07-22T05:30:22;16.38;;;9.50;;
36715;SDS011;22699;51.034;3.730;2023-07-22T05:32:47;21.15;;;10.27;;
36715;SDS011;22699;51.034;3.730;2023-07-22T05:35:16;15.18;;;9.80;;
36715;SDS011;22699;51.034;3.730;2023-07-22T05:37:42;16.40;;;10.32;;
36715;SDS011;22699;51.034;3.730;2023-07-22T05:40:07;18.15;;;9.43;;
36715;SDS011;22699;51.034;3.730;2023-07-22T05:42:34;13.82;;;8.85;;
36715;SDS011;22699;51.034;3.730;2023-07-22T05:44:59;15.27;;;8.88;;
36715;SDS011;22699;51.034;3.730;2023-07-22T05:47:27;17.45;;;8.80;;
36715;SDS011;22699;51.034;3.730;2023-07-22T05:49:53;18.13;;;9.00;;
36715;SDS011;22699;51.034;3.730;2023-07-22T05:52:18;16.30;;;8.55;;
36715;SDS011;22699;51.034;3.730;2023-07-22T05:54:44;14.63;;;8.95;;
36715;SDS011;22699;51.034;3.730;2023-07-22T05:57:10;14.57;;;8.98;;
36715;SDS011;22699;51.034;3.730;2023-07-22T05:59:35;16.70;;;8.93;;
36715;SDS011;22699;51.034;3.730;2023-07-22T06:02:05;16.83;;;9.02;;
36715;SDS011;22699;51.034;3.730;2023-07-22T06:04:33;11.80;;;8.32;;
36715;SDS011;22699;51.034;3.730;2023-07-22T06:06:58;14.23;;;8.10;;
36715;SDS011;22699;51.034;3.730;2023-07-22T06:09:24;16.27;;;7.85;;
36715;SDS011;22699;51.034;3.730;2023-07-22T06:11:49;16.80;;;8.35;;
36715;SDS011;22699;51.034;3.730;2023-07-22T06:14:15;15.80;;;8.23;;
36715;SDS011;22699;51.034;3.730;2023-07-22T06:16:41;15.25;;;7.97;;
36715;SDS011;22699;51.034;3.730;2023-07-22T06:19:06;14.13;;;7.93;;
36715;SDS011;22699;51.034;3.730;2023-07-22T06:21:32;9.88;;;7.15;;
36715;SDS011;22699;51.034;3.730;2023-07-22T06:23:58;16.65;;;8.80;;
36715;SDS011;22699;51.034;3.730;2023-07-22T06:26:23;15.15;;;7.88;;
36715;SDS011;22699;51.034;3.730;2023-07-22T06:28:49;13.80;;;8.48;;
36715;SDS011;22699;51.034;3.730;2023-07-22T06:31:15;15.50;;;7.55;;
36715;SDS011;22699;51.034;3.730;2023-07-22T06:33:42;15.25;;;7.65;;
36715;SDS011;22699;51.034;3.730;2023-07-22T06:36:07;10.52;;;7.20;;
36715;SDS011;22699;51.034;3.730;2023-07-22T06:38:33;13.48;;;8.05;;
36715;SDS011;22699;51.034;3.730;2023-07-22T06:40:58;15.45;;;7.55;;
36715;SDS011;22699;51.034;3.730;2023-07-22T06:43:26;13.55;;;7.70;;
36715;SDS011;22699;51.034;3.730;2023-07-22T06:45:52;15.20;;;7.30;;
36715;SDS011;22699;51.034;3.730;2023-07-22T06:48:17;17.73;;;7.10;;
36715;SDS011;22699;51.034;3.730;2023-07-22T06:50:47;15.82;;;8.15;;
36715;SDS011;22699;51.034;3.730;2023-07-22T06:53:13;8.95;;;6.18;;
36715;SDS011;22699;51.034;3.730;2023-07-22T06:55:39;13.68;;;7.00;;
36715;SDS011;22699;51.034;3.730;2023-07-22T06:58:12;12.68;;;6.60;;
36715;SDS011;22699;51.034;3.730;2023-07-22T07:00:38;16.65;;;6.05;;
36715;SDS011;22699;51.034;3.730;2023-07-22T07:03:04;14.90;;;7.10;;
36715;SDS011;22699;51.034;3.730;2023-07-22T07:05:29;15.15;;;5.78;;
36715;SDS011;22699;51.034;3.730;2023-07-22T07:07:55;11.15;;;5.85;;
36715;SDS011;22699;51.034;3.730;2023-07-22T07:10:20;13.50;;;6.85;;
36715;SDS011;22699;51.034;3.730;2023-07-22T07:12:46;13.80;;;6.88;;
36715;SDS011;22699;51.034;3.730;2023-07-22T07:15:11;15.48;;;6.50;;
36715;SDS011;22699;51.034;3.730;2023-07-22T07:17:37;12.88;;;6.20;;
36715;SDS011;22699;51.034;3.730;2023-07-22T07:20:03;13.15;;;6.68;;
36715;SDS011;22699;51.034;3.730;2023-07-22T07:22:29;12.77;;;5.72;;
36715;SDS011;22699;51.034;3.730;2023-07-22T07:24:55;15.48;;;7.00;;
36715;SDS011;22699;51.034;3.730;2023-07-22T07:27:21;12.27;;;6.90;;
36715;SDS011;22699;51.034;3.730;2023-07-22T07:29:46;12.70;;;6.75;;
36715;SDS011;22699;51.034;3.730;2023-07-22T07:32:12;11.88;;;6.38;;
36715;SDS011;22699;51.034;3.730;2023-07-22T07:34:37;12.65;;;6.30;;
36715;SDS011;22699;51.034;3.730;2023-07-22T07:37:03;10.82;;;6.50;;
36715;SDS011;22699;51.034;3.730;2023-07-22T07:39:29;18.23;;;7.65;;
36715;SDS011;22699;51.034;3.730;2023-07-22T07:41:54;10.05;;;6.68;;
36715;SDS011;22699;51.034;3.730;2023-07-22T07:44:20;11.93;;;6.93;;
36715;SDS011;22699;51.034;3.730;2023-07-22T07:46:45;10.82;;;6.25;;
36715;SDS011;22699;51.034;3.730;2023-07-22T07:49:11;10.20;;;6.03;;
36715;SDS011;22699;51.034;3.730;2023-07-22T07:51:36;11.13;;;6.80;;
36715;SDS011;22699;51.034;3.730;2023-07-22T07:54:02;13.15;;;6.97;;
36715;SDS011;22699;51.034;3.730;2023-07-22T07:56:29;11.15;;;5.53;;
36715;SDS011;22699;51.034;3.730;2023-07-22T07:58:54;11.82;;;6.30;;
36715;SDS011;22699;51.034;3.730;2023-07-22T08:01:20;11.57;;;6.53;;
36715;SDS011;22699;51.034;3.730;2023-07-22T08:03:46;14.02;;;6.00;;
36715;SDS011;22699;51.034;3.730;2023-07-22T08:06:12;10.95;;;5.30;;
36715;SDS011;22699;51.034;3.730;2023-07-22T08:08:38;8.77;;;5.53;;
36715;SDS011;22699;51.034;3.730;2023-07-22T08:11:08;8.27;;;5.10;;
36715;SDS011;22699;51.034;3.730;2023-07-22T08:13:35;12.82;;;5.13;;
36715;SDS011;22699;51.034;3.730;2023-07-22T08:16:02;12.60;;;5.57;;
36715;SDS011;22699;51.034;3.730;2023-07-22T08:18:30;12.13;;;5.10;;
36715;SDS011;22699;51.034;3.730;2023-07-22T08:20:56;8.77;;;4.45;;
36715;SDS011;22699;51.034;3.730;2023-07-22T08:23:22;7.25;;;4.18;;
36715;SDS011;22699;51.034;3.730;2023-07-22T08:25:48;7.47;;;4.45;;
36715;SDS011;22699;51.034;3.730;2023-07-22T08:28:14;7.55;;;4.38;;
36715;SDS011;22699;51.034;3.730;2023-07-22T08:30:40;11.02;;;4.72;;
36715;SDS011;22699;51.034;3.730;2023-07-22T08:33:14;10.30;;;4.28;;
36715;SDS011;22699;51.034;3.730;2023-07-22T08:35:43;9.70;;;3.90;;
36715;SDS011;22699;51.034;3.730;2023-07-22T08:38:10;6.18;;;3.55;;
36715;SDS011;22699;51.034;3.730;2023-07-22T08:40:36;8.23;;;3.75;;
36715;SDS011;22699;51.034;3.730;2023-07-22T08:43:03;7.32;;;3.67;;
36715;SDS011;22699;51.034;3.730;2023-07-22T08:45:31;6.45;;;3.38;;
36715;SDS011;22699;51.034;3.730;2023-07-22T08:48:08;7.43;;;3.90;;
36715;SDS011;22699;51.034;3.730;2023-07-22T08:50:53;6.07;;;3.17;;
36715;SDS011;22699;51.034;3.730;2023-07-22T08:53:20;9.20;;;4.15;;
36715;SDS011;22699;51.034;3.730;2023-07-22T08:55:46;7.95;;;3.88;;
36715;SDS011;22699;51.034;3.730;2023-07-22T08:58:15;9.07;;;4.18;;
36715;SDS011;22699;51.034;3.730;2023-07-22T09:00:41;6.28;;;3.60;;
36715;SDS011;22699;51.034;3.730;2023-07-22T09:03:07;12.32;;;3.58;;
36715;SDS011;22699;51.034;3.730;2023-07-22T09:05:34;5.97;;;2.85;;
36715;SDS011;22699;51.034;3.730;2023-07-22T09:08:01;6.57;;;3.17;;
36715;SDS011;22699;51.034;3.730;2023-07-22T09:10:29;6.65;;;3.03;;
36715;SDS011;22699;51.034;3.730;2023-07-22T09:12:56;5.20;;;3.05;;
36715;SDS011;22699;51.034;3.730;2023-07-22T09:15:23;6.93;;;2.88;;
36715;SDS011;22699;51.034;3.730;2023-07-22T09:17:49;5.38;;;2.67;;
36715;SDS011;22699;51.034;3.730;2023-07-22T09:20:15;5.93;;;2.67;;
36715;SDS011;22699;51.034;3.730;2023-07-22T09:22:48;5.43;;;2.83;;
36715;SDS011;22699;51.034;3.730;2023-07-22T09:25:17;7.15;;;2.67;;
36715;SDS011;22699;51.034;3.730;2023-07-22T09:27:44;6.38;;;2.33;;
36715;SDS011;22699;51.034;3.730;2023-07-22T09:30:27;7.43;;;2.92;;
36715;SDS011;22699;51.034;3.730;2023-07-22T09:32:54;5.70;;;2.72;;
36715;SDS011;22699;51.034;3.730;2023-07-22T09:35:27;6.75;;;2.15;;
36715;SDS011;22699;51.034;3.730;2023-07-22T09:40:23;4.45;;;1.77;;
36715;SDS011;22699;51.034;3.730;2023-07-22T09:42:53;4.93;;;1.75;;
36715;SDS011;22699;51.034;3.730;2023-07-22T09:45:24;4.72;;;1.45;;
36715;SDS011;22699;51.034;3.730;2023-07-22T09:47:51;5.88;;;1.70;;
36715;SDS011;22699;51.034;3.730;2023-07-22T09:50:19;4.35;;;1.65;;
36715;SDS011;22699;51.034;3.730;2023-07-22T09:52:50;5.15;;;1.77;;
36715;SDS011;22699;51.034;3.730;2023-07-22T09:55:19;3.40;;;1.60;;
36715;SDS011;22699;51.034;3.730;2023-07-22T09:57:59;3.10;;;1.50;;
36715;SDS011;22699;51.034;3.730;2023-07-22T10:00:29;3.17;;;1.15;;
36715;SDS011;22699;51.034;3.730;2023-07-22T10:02:59;2.83;;;1.02;;
36715;SDS011;22699;51.034;3.730;2023-07-22T10:05:27;3.45;;;1.40;;
36715;SDS011;22699;51.034;3.730;2023-07-22T10:07:55;2.78;;;1.15;;
36715;SDS011;22699;51.034;3.730;2023-07-22T10:10:31;3.95;;;1.15;;
36715;SDS011;22699;51.034;3.730;2023-07-22T10:12:59;4.20;;;1.38;;
36715;SDS011;22699;51.034;3.730;2023-07-22T10:15:25;2.60;;;1.17;;
36715;SDS011;22699;51.034;3.730;2023-07-22T10:17:53;2.65;;;1.17;;
36715;SDS011;22699;51.034;3.730;2023-07-22T10:20:20;2.45;;;1.10;;
36715;SDS011;22699;51.034;3.730;2023-07-22T10:22:47;2.33;;;0.90;;
36715;SDS011;22699;51.034;3.730;2023-07-22T10:25:19;5.13;;;1.20;;
36715;SDS011;22699;51.034;3.730;2023-07-22T10:27:47;4.88;;;1.38;;
36715;SDS011;22699;51.034;3.730;2023-07-22T10:30:14;3.05;;;0.90;;
36715;SDS011;22699;51.034;3.730;2023-07-22T10:32:43;4.35;;;1.08;;
36715;SDS011;22699;51.034;3.730;2023-07-22T10:35:11;4.53;;;1.35;;
36715;SDS011;22699;51.034;3.730;2023-07-22T10:37:46;2.65;;;1.38;;
36715;SDS011;22699;51.034;3.730;2023-07-22T10:40:19;3.08;;;1.13;;
36715;SDS011;22699;51.034;3.730;2023-07-22T10:43:03;3.47;;;1.15;;
36715;SDS011;22699;51.034;3.730;2023-07-22T10:45:30;2.20;;;1.42;;
36715;SDS011;22699;51.034;3.730;2023-07-22T10:48:07;2.30;;;1.00;;
36715;SDS011;22699;51.034;3.730;2023-07-22T10:50:41;3.05;;;1.02;;
36715;SDS011;22699;51.034;3.730;2023-07-22T11:04:13;3.83;;;1.10;;
36715;SDS011;22699;51.034;3.730;2023-07-22T11:12:00;4.05;;;1.00;;
36715;SDS011;22699;51.034;3.730;2023-07-22T11:14:27;2.28;;;1.17;;
36715;SDS011;22699;51.034;3.730;2023-07-22T11:16:56;2.67;;;1.00;;
36715;SDS011;22699;51.034;3.730;2023-07-22T11:19:23;2.20;;;1.10;;
36715;SDS011;22699;51.034;3.730;2023-07-22T11:21:51;2.95;;;1.13;;
36715;SDS011;22699;51.034;3.730;2023-07-22T11:24:18;4.75;;;1.35;;
36715;SDS011;22699;51.034;3.730;2023-07-22T11:26:46;2.05;;;1.17;;
36715;SDS011;22699;51.034;3.730;2023-07-22T11:29:13;3.22;;;0.90;;
36715;SDS011;22699;51.034;3.730;2023-07-22T11:31:40;2.80;;;1.17;;
36715;SDS011;22699;51.034;3.730;2023-07-22T11:36:37;2.72;;;1.30;;
36715;SDS011;22699;51.034;3.730;2023-07-22T11:39:10;3.28;;;1.52;;
36715;SDS011;22699;51.034;3.730;2023-07-22T11:41:38;3.97;;;1.50;;
36715;SDS011;22699;51.034;3.730;2023-07-22T11:44:06;2.97;;;1.63;;
36715;SDS011;22699;51.034;3.730;2023-07-22T11:46:40;4.45;;;1.90;;
36715;SDS011;22699;51.034;3.730;2023-07-22T11:49:35;2.55;;;1.45;;
36715;SDS011;22699;51.034;3.730;2023-07-22T11:52:06;3.35;;;1.55;;
36715;SDS011;22699;51.034;3.730;2023-07-22T11:54:40;2.92;;;1.40;;
36715;SDS011;22699;51.034;3.730;2023-07-22T11:57:24;2.75;;;1.73;;
36715;SDS011;22699;51.034;3.730;2023-07-22T11:59:53;6.35;;;1.65;;
36715;SDS011;22699;51.034;3.730;2023-07-22T12:05:00;5.05;;;1.67;;
36715;SDS011;22699;51.034;3.730;2023-07-22T12:07:36;3.38;;;1.52;;
36715;SDS011;22699;51.034;3.730;2023-07-22T12:10:03;4.55;;;1.30;;
36715;SDS011;22699;51.034;3.730;2023-07-22T12:12:37;4.38;;;1.50;;
36715;SDS011;22699;51.034;3.730;2023-07-22T12:15:10;3.03;;;1.30;;
36715;SDS011;22699;51.034;3.730;2023-07-22T12:20:10;3.67;;;1.30;;
36715;SDS011;22699;51.034;3.730;2023-07-22T12:22:36;3.97;;;1.55;;
36715;SDS011;22699;51.034;3.730;2023-07-22T12:25:01;2.55;;;1.40;;
36715;SDS011;22699;51.034;3.730;2023-07-22T12:27:28;3.75;;;1.35;;
36715;SDS011;22699;51.034;3.730;2023-07-22T12:29:53;3.53;;;1.40;;
36715;SDS011;22699;51.034;3.730;2023-07-22T12:32:19;2.17;;;1.30;;
36715;SDS011;22699;51.034;3.730;2023-07-22T12:34:44;4.78;;;1.75;;
36715;SDS011;22699;51.034;3.730;2023-07-22T12:37:10;5.85;;;1.77;;
36715;SDS011;22699;51.034;3.730;2023-07-22T12:39:35;4.15;;;1.38;;
36715;SDS011;22699;51.034;3.730;2023-07-22T12:42:01;2.28;;;1.30;;
36715;SDS011;22699;51.034;3.730;2023-07-22T12:44:26;2.50;;;1.52;;
36715;SDS011;22699;51.034;3.730;2023-07-22T12:46:52;1.92;;;1.40;;
36715;SDS011;22699;51.034;3.730;2023-07-22T12:49:18;8.73;;;2.22;;
36715;SDS011;22699;51.034;3.730;2023-07-22T12:51:44;5.55;;;1.52;;
36715;SDS011;22699;51.034;3.730;2023-07-22T12:54:10;4.60;;;1.25;;
36715;SDS011;22699;51.034;3.730;2023-07-22T12:56:35;3.20;;;1.40;;
36715;SDS011;22699;51.034;3.730;2023-07-22T12:59:01;4.25;;;1.42;;
36715;SDS011;22699;51.034;3.730;2023-07-22T13:01:27;5.15;;;1.52;;
36715;SDS011;22699;51.034;3.730;2023-07-22T13:03:52;3.65;;;1.60;;
36715;SDS011;22699;51.034;3.730;2023-07-22T13:06:18;3.85;;;1.38;;
36715;SDS011;22699;51.034;3.730;2023-07-22T13:08:43;4.43;;;1.80;;
36715;SDS011;22699;51.034;3.730;2023-07-22T13:11:09;4.05;;;1.52;;
36715;SDS011;22699;51.034;3.730;2023-07-22T13:13:35;3.67;;;1.48;;
36715;SDS011;22699;51.034;3.730;2023-07-22T13:16:00;3.53;;;1.40;;
36715;SDS011;22699;51.034;3.730;2023-07-22T13:18:26;2.47;;;1.40;;
36715;SDS011;22699;51.034;3.730;2023-07-22T13:20:51;5.40;;;1.80;;
36715;SDS011;22699;51.034;3.730;2023-07-22T13:23:17;4.63;;;1.83;;
36715;SDS011;22699;51.034;3.730;2023-07-22T13:25:42;3.30;;;1.23;;
36715;SDS011;22699;51.034;3.730;2023-07-22T13:28:08;4.15;;;1.35;;
36715;SDS011;22699;51.034;3.730;2023-07-22T13:30:33;4.60;;;1.60;;
36715;SDS011;22699;51.034;3.730;2023-07-22T13:32:59;5.68;;;1.83;;
36715;SDS011;22699;51.034;3.730;2023-07-22T13:35:25;2.47;;;1.30;;
36715;SDS011;22699;51.034;3.730;2023-07-22T13:37:50;4.18;;;1.48;;
36715;SDS011;22699;51.034;3.730;2023-07-22T13:40:16;6.22;;;1.52;;
36715;SDS011;22699;51.034;3.730;2023-07-22T13:42:42;4.65;;;1.45;;
36715;SDS011;22699;51.034;3.730;2023-07-22T13:45:08;4.15;;;1.50;;
36715;SDS011;22699;51.034;3.730;2023-07-22T13:47:34;7.43;;;1.35;;
36715;SDS011;22699;51.034;3.730;2023-07-22T13:49:59;2.47;;;1.17;;
36715;SDS011;22699;51.034;3.730;2023-07-22T13:52:25;4.35;;;1.90;;
36715;SDS011;22699;51.034;3.730;2023-07-22T13:54:51;6.25;;;1.25;;
36715;SDS011;22699;51.034;3.730;2023-07-22T13:57:16;3.78;;;1.17;;
36715;SDS011;22699;51.034;3.730;2023-07-22T13:59:42;3.75;;;1.27;;
36715;SDS011;22699;51.034;3.730;2023-07-22T14:02:07;6.00;;;1.35;;
36715;SDS011;22699;51.034;3.730;2023-07-22T14:04:33;3.30;;;1.40;;
36715;SDS011;22699;51.034;3.730;2023-07-22T14:06:58;2.72;;;1.40;;
36715;SDS011;22699;51.034;3.730;2023-07-22T14:09:24;4.13;;;1.42;;
36715;SDS011;22699;51.034;3.730;2023-07-22T14:11:49;5.90;;;1.70;;
36715;SDS011;22699;51.034;3.730;2023-07-22T14:14:15;6.10;;;1.60;;
36715;SDS011;22699;51.034;3.730;2023-07-22T14:16:41;5.78;;;1.85;;
36715;SDS011;22699;51.034;3.730;2023-07-22T14:19:06;4.22;;;1.70;;
36715;SDS011;22699;51.034;3.730;2023-07-22T14:21:32;4.03;;;1.67;;
36715;SDS011;22699;51.034;3.730;2023-07-22T14:23:57;9.20;;;1.85;;
36715;SDS011;22699;51.034;3.730;2023-07-22T14:26:23;3.45;;;1.58;;
36715;SDS011;22699;51.034;3.730;2023-07-22T14:28:48;6.22;;;2.00;;
36715;SDS011;22699;51.034;3.730;2023-07-22T14:31:14;7.70;;;1.73;;
36715;SDS011;22699;51.034;3.730;2023-07-22T14:33:40;7.20;;;2.13;;
36715;SDS011;22699;51.034;3.730;2023-07-22T14:36:05;3.78;;;1.70;;
36715;SDS011;22699;51.034;3.730;2023-07-22T14:38:31;3.90;;;1.70;;
36715;SDS011;22699;51.034;3.730;2023-07-22T14:40:57;3.75;;;1.30;;
36715;SDS011;22699;51.034;3.730;2023-07-22T14:43:22;4.20;;;1.48;;
36715;SDS011;22699;51.034;3.730;2023-07-22T14:45:48;2.05;;;1.25;;
36715;SDS011;22699;51.034;3.730;2023-07-22T14:48:14;5.13;;;1.80;;
36715;SDS011;22699;51.034;3.730;2023-07-22T14:50:39;3.33;;;1.83;;
36715;SDS011;22699;51.034;3.730;2023-07-22T14:53:05;4.40;;;1.95;;
36715;SDS011;22699;51.034;3.730;2023-07-22T14:55:30;10.50;;;1.67;;
36715;SDS011;22699;51.034;3.730;2023-07-22T14:57:56;4.78;;;1.73;;
36715;SDS011;22699;51.034;3.730;2023-07-22T15:00:21;2.95;;;1.38;;
36715;SDS011;22699;51.034;3.730;2023-07-22T15:02:48;4.75;;;1.70;;
36715;SDS011;22699;51.034;3.730;2023-07-22T15:05:13;4.55;;;1.83;;
36715;SDS011;22699;51.034;3.730;2023-07-22T15:07:39;6.68;;;1.95;;